PETRL01 KLSV-KLSV
Flight info
| Callsign | PETRL01 |
|---|---|
| Flight time | N/A |
| Altitude | 34000 |
| Route | LAS CRESO GFS JOTNU TRM MZB ORDER 3226N11741W 3154N11746W 3054N11745W 3014N11746W 2942N11747W 2941N11817W 2811N12010W 2657N12143W 2553N12300W 2554N12307W 2559N12333W 2800N12512W/N0481F360 2559N12333W 2800N12512W 2823N12512W/N0468F380 2909N12341W 2932N12255W 3036N12046W 3114N12009W 3148N11936W 3211N11936W 3244N11900W NUC PYRAS OCN TRM JOTNU GFS KONNG LSV |
| Aircraft | K35R/H-SDE2E3FGHIJ4J5M1RWXY/LB1D1 |
Departure
| Time | 2026-05-04 03:17 |
|---|---|
| Airport | Nellis Air Force Base (KLSV) |
Arrival
| Time | N/A |
|---|---|
| Airport | Nellis Air Force Base (KLSV) |
| Time | Latitude | Longitude | Altitude | Speed | Heading |
|---|---|---|---|---|---|
| 2026-05-04 03:01 | 36.24234 | -115.02068 | 1898 ft | 0 kts | 223° |
| 2026-05-04 03:14 | 36.24233 | -115.02068 | 1898 ft | 0 kts | 223° |
| 2026-05-04 03:14 | 36.24229 | -115.02074 | 1898 ft | 3 kts | 225° |
| 2026-05-04 03:14 | 36.24217 | -115.02101 | 1895 ft | 2 kts | 262° |
| 2026-05-04 03:14 | 36.24225 | -115.02115 | 1895 ft | 3 kts | 309° |
| 2026-05-04 03:15 | 36.24263 | -115.02126 | 1896 ft | 8 kts | 4° |
| 2026-05-04 03:15 | 36.24310 | -115.02096 | 1895 ft | 9 kts | 40° |
| 2026-05-04 03:15 | 36.24362 | -115.02040 | 1895 ft | 10 kts | 41° |
| 2026-05-04 03:15 | 36.24411 | -115.02003 | 1895 ft | 5 kts | 2° |
| 2026-05-04 03:16 | 36.24432 | -115.02016 | 1895 ft | 4 kts | 323° |
| 2026-05-04 03:16 | 36.24467 | -115.02063 | 1903 ft | 11 kts | 311° |
| 2026-05-04 03:16 | 36.24519 | -115.02143 | 1901 ft | 13 kts | 303° |
| 2026-05-04 03:16 | 36.24513 | -115.02241 | 1900 ft | 14 kts | 235° |
| 2026-05-04 03:17 | 36.24340 | -115.02417 | 1900 ft | 61 kts | 220° |
| 2026-05-04 03:17 | 36.23876 | -115.02922 | 1902 ft | 115 kts | 221° |
| 2026-05-04 03:17 | 36.23157 | -115.03694 | 2030 ft | 150 kts | 220° |
| 2026-05-04 03:17 | 36.22359 | -115.04513 | 2546 ft | 153 kts | 215° |
| 2026-05-04 03:18 | 36.21388 | -115.05100 | 3111 ft | 158 kts | 207° |
| 2026-05-04 03:18 | 36.20383 | -115.05632 | 3726 ft | 157 kts | 206° |
| 2026-05-04 03:18 | 36.19381 | -115.06161 | 4282 ft | 156 kts | 207° |
| 2026-05-04 03:18 | 36.18392 | -115.06682 | 4813 ft | 159 kts | 205° |
| 2026-05-04 03:19 | 36.17354 | -115.07241 | 5238 ft | 167 kts | 207° |
| 2026-05-04 03:19 | 36.16267 | -115.07883 | 5734 ft | 174 kts | 207° |
| 2026-05-04 03:19 | 36.15148 | -115.08538 | 6186 ft | 190 kts | 204° |
| 2026-05-04 03:19 | 36.13818 | -115.09045 | 6562 ft | 210 kts | 194° |
| 2026-05-04 03:20 | 36.12337 | -115.09396 | 7069 ft | 223 kts | 193° |
| 2026-05-04 03:20 | 36.10771 | -115.09762 | 7632 ft | 235 kts | 192° |
| 2026-05-04 03:20 | 36.09132 | -115.10143 | 8260 ft | 244 kts | 192° |
| 2026-05-04 03:20 | 36.07439 | -115.10539 | 8946 ft | 250 kts | 192° |
| 2026-05-04 03:21 | 36.05713 | -115.10944 | 9670 ft | 255 kts | 191° |
| 2026-05-04 03:21 | 36.03957 | -115.11355 | 10353 ft | 258 kts | 191° |
| 2026-05-04 03:21 | 36.02183 | -115.11770 | 11091 ft | 261 kts | 191° |
| 2026-05-04 03:21 | 36.00392 | -115.12189 | 11804 ft | 262 kts | 191° |
| 2026-05-04 03:22 | 35.98589 | -115.12611 | 12498 ft | 265 kts | 190° |
| 2026-05-04 03:22 | 35.96754 | -115.12977 | 13082 ft | 272 kts | 187° |
| 2026-05-04 03:22 | 35.94812 | -115.13284 | 13404 ft | 289 kts | 187° |
| 2026-05-04 03:22 | 35.92761 | -115.13596 | 13687 ft | 305 kts | 187° |
| 2026-05-04 03:23 | 35.90607 | -115.13949 | 13962 ft | 319 kts | 188° |
| 2026-05-04 03:23 | 35.88360 | -115.14351 | 14214 ft | 334 kts | 189° |
| 2026-05-04 03:23 | 35.86015 | -115.14797 | 14495 ft | 348 kts | 189° |
| 2026-05-04 03:23 | 35.83575 | -115.15279 | 14761 ft | 362 kts | 190° |
| 2026-05-04 03:24 | 35.81053 | -115.15785 | 15177 ft | 370 kts | 190° |
| 2026-05-04 03:24 | 35.78516 | -115.16258 | 15682 ft | 376 kts | 187° |
| 2026-05-04 03:24 | 35.75888 | -115.16487 | 16265 ft | 380 kts | 185° |
| 2026-05-04 03:24 | 35.73225 | -115.16621 | 16819 ft | 386 kts | 184° |
| 2026-05-04 03:25 | 35.70534 | -115.16700 | 17395 ft | 388 kts | 184° |
| 2026-05-04 03:25 | 35.67820 | -115.16743 | 18008 ft | 391 kts | 183° |
| 2026-05-04 03:25 | 35.65096 | -115.16772 | 18544 ft | 393 kts | 184° |
| 2026-05-04 03:25 | 35.62353 | -115.16802 | 19028 ft | 395 kts | 185° |
| 2026-05-04 03:26 | 35.59596 | -115.16847 | 19527 ft | 398 kts | 185° |
| 2026-05-04 03:26 | 35.56821 | -115.16892 | 20054 ft | 400 kts | 186° |
| 2026-05-04 03:26 | 35.54026 | -115.16941 | 20532 ft | 402 kts | 186° |
| 2026-05-04 03:26 | 35.51227 | -115.16994 | 21104 ft | 403 kts | 187° |
| 2026-05-04 03:27 | 35.48419 | -115.17044 | 21631 ft | 405 kts | 187° |
| 2026-05-04 03:27 | 35.45591 | -115.17093 | 22134 ft | 407 kts | 188° |
| 2026-05-04 03:27 | 35.42745 | -115.17142 | 22543 ft | 411 kts | 188° |
| 2026-05-04 03:27 | 35.39868 | -115.17193 | 22974 ft | 415 kts | 189° |
| 2026-05-04 03:28 | 35.36971 | -115.17243 | 23439 ft | 418 kts | 189° |
| 2026-05-04 03:28 | 35.34051 | -115.17292 | 23795 ft | 421 kts | 189° |
| 2026-05-04 03:28 | 35.31115 | -115.17343 | 24136 ft | 424 kts | 189° |
| 2026-05-04 03:28 | 35.28154 | -115.17394 | 24483 ft | 427 kts | 189° |
| 2026-05-04 03:29 | 35.25174 | -115.17446 | 24808 ft | 430 kts | 189° |
| 2026-05-04 03:29 | 35.22209 | -115.17497 | 25131 ft | 433 kts | 189° |
| 2026-05-04 03:29 | 35.19184 | -115.17550 | 25379 ft | 437 kts | 189° |
| 2026-05-04 03:29 | 35.16132 | -115.17649 | 25683 ft | 436 kts | 192° |
| 2026-05-04 03:30 | 35.13136 | -115.18099 | 26013 ft | 431 kts | 198° |
| 2026-05-04 03:30 | 35.10243 | -115.18992 | 26342 ft | 428 kts | 204° |
| 2026-05-04 03:30 | 35.07409 | -115.20103 | 26651 ft | 428 kts | 206° |
| 2026-05-04 03:30 | 35.04599 | -115.21307 | 27007 ft | 428 kts | 206° |
| 2026-05-04 03:31 | 35.01801 | -115.22559 | 27295 ft | 431 kts | 207° |
| 2026-05-04 03:31 | 34.98982 | -115.23836 | 27576 ft | 433 kts | 207° |
| 2026-05-04 03:31 | 34.96149 | -115.25114 | 27864 ft | 435 kts | 207° |
| 2026-05-04 03:31 | 34.93303 | -115.26389 | 28194 ft | 436 kts | 207° |
| 2026-05-04 03:32 | 34.90447 | -115.27658 | 28521 ft | 438 kts | 207° |
| 2026-05-04 03:32 | 34.87575 | -115.28928 | 28794 ft | 440 kts | 207° |
| 2026-05-04 03:32 | 34.84688 | -115.30199 | 29068 ft | 442 kts | 207° |
| 2026-05-04 03:32 | 34.81833 | -115.31452 | 29459 ft | 441 kts | 207° |
| 2026-05-04 03:33 | 34.78951 | -115.32714 | 29866 ft | 440 kts | 207° |
| 2026-05-04 03:33 | 34.76083 | -115.33967 | 30304 ft | 435 kts | 208° |
| 2026-05-04 03:33 | 34.73248 | -115.35198 | 30858 ft | 429 kts | 209° |
| 2026-05-04 03:33 | 34.70454 | -115.36415 | 31294 ft | 424 kts | 210° |
| 2026-05-04 03:34 | 34.67691 | -115.37622 | 31746 ft | 419 kts | 210° |
| 2026-05-04 03:34 | 34.64956 | -115.38821 | 32114 ft | 417 kts | 211° |
| 2026-05-04 03:34 | 34.62237 | -115.40015 | 32446 ft | 415 kts | 211° |
| 2026-05-04 03:34 | 34.59526 | -115.41205 | 32769 ft | 414 kts | 212° |
| 2026-05-04 03:35 | 34.56821 | -115.42389 | 33106 ft | 412 kts | 212° |
| 2026-05-04 03:35 | 34.54134 | -115.43564 | 33429 ft | 410 kts | 212° |
| 2026-05-04 03:35 | 34.51457 | -115.44732 | 33692 ft | 410 kts | 212° |
| 2026-05-04 03:36 | 34.46076 | -115.47086 | 33732 ft | 410 kts | 212° |
| 2026-05-04 03:36 | 34.40723 | -115.49415 | 33733 ft | 411 kts | 212° |
| 2026-05-04 03:37 | 34.35332 | -115.51805 | 33738 ft | 417 kts | 214° |
| 2026-05-04 03:37 | 34.30313 | -115.55106 | 33741 ft | 404 kts | 224° |
| 2026-05-04 03:38 | 34.25789 | -115.59057 | 33740 ft | 400 kts | 226° |
| 2026-05-04 03:38 | 34.21362 | -115.63121 | 33749 ft | 399 kts | 227° |
| 2026-05-04 03:39 | 34.16945 | -115.67179 | 33748 ft | 398 kts | 225° |
| 2026-05-04 03:39 | 34.12535 | -115.71195 | 33765 ft | 396 kts | 225° |
| 2026-05-04 03:40 | 34.08136 | -115.75193 | 33773 ft | 395 kts | 225° |
| 2026-05-04 03:40 | 34.03746 | -115.79174 | 33784 ft | 395 kts | 225° |
| 2026-05-04 03:41 | 33.99357 | -115.83148 | 33790 ft | 395 kts | 225° |
| 2026-05-04 03:41 | 33.94965 | -115.87108 | 33786 ft | 394 kts | 225° |
| 2026-05-04 03:42 | 33.91313 | -115.90399 | 33799 ft | 394 kts | 225° |
| 2026-05-04 03:42 | 33.86920 | -115.94366 | 33754 ft | 395 kts | 224° |
| 2026-05-04 03:43 | 33.82498 | -115.98359 | 33796 ft | 399 kts | 224° |
| 2026-05-04 03:43 | 33.78056 | -116.02352 | 33804 ft | 399 kts | 224° |
| 2026-05-04 03:44 | 33.73603 | -116.06343 | 33785 ft | 399 kts | 224° |
| 2026-05-04 03:44 | 33.69174 | -116.10304 | 33777 ft | 398 kts | 224° |
| 2026-05-04 03:45 | 33.64737 | -116.14287 | 33776 ft | 398 kts | 225° |
| 2026-05-04 03:45 | 33.60705 | -116.18722 | 33777 ft | 391 kts | 231° |
| 2026-05-04 03:46 | 33.56953 | -116.23432 | 33763 ft | 390 kts | 232° |
| 2026-05-04 03:46 | 33.53260 | -116.28186 | 33817 ft | 390 kts | 232° |
| 2026-05-04 03:47 | 33.49536 | -116.32947 | 33828 ft | 392 kts | 231° |
| 2026-05-04 03:47 | 33.45786 | -116.37709 | 33831 ft | 393 kts | 231° |
| 2026-05-04 03:48 | 33.42064 | -116.42432 | 33872 ft | 392 kts | 231° |
| 2026-05-04 03:48 | 33.38318 | -116.47184 | 33871 ft | 392 kts | 231° |
| 2026-05-04 03:49 | 33.34575 | -116.51940 | 33928 ft | 394 kts | 231° |
| 2026-05-04 03:49 | 33.30804 | -116.56701 | 33884 ft | 393 kts | 231° |
| 2026-05-04 03:50 | 33.27036 | -116.61462 | 33923 ft | 395 kts | 231° |
| 2026-05-04 03:50 | 33.23248 | -116.66238 | 33954 ft | 396 kts | 231° |
| 2026-05-04 03:51 | 33.19455 | -116.71011 | 33968 ft | 396 kts | 231° |
| 2026-05-04 03:51 | 33.15663 | -116.75774 | 33989 ft | 395 kts | 231° |
| 2026-05-04 03:52 | 33.11875 | -116.80536 | 33989 ft | 395 kts | 231° |
| 2026-05-04 03:52 | 33.08081 | -116.85297 | 33991 ft | 396 kts | 231° |
| 2026-05-04 03:53 | 33.04322 | -116.90004 | 34042 ft | 394 kts | 231° |
| 2026-05-04 03:53 | 33.00550 | -116.94724 | 34035 ft | 392 kts | 231° |
| 2026-05-04 03:54 | 32.96784 | -116.99432 | 34035 ft | 392 kts | 231° |
| 2026-05-04 03:54 | 32.93019 | -117.04131 | 34036 ft | 392 kts | 231° |
| 2026-05-04 03:55 | 32.89247 | -117.08832 | 34037 ft | 392 kts | 231° |
| 2026-05-04 03:55 | 32.85471 | -117.13530 | 34035 ft | 392 kts | 231° |
| 2026-05-04 03:56 | 32.81756 | -117.18268 | 34053 ft | 389 kts | 234° |
| 2026-05-04 03:56 | 32.78886 | -117.23638 | 34044 ft | 383 kts | 246° |
| 2026-05-04 03:57 | 32.77352 | -117.29692 | 34054 ft | 385 kts | 257° |
| 2026-05-04 03:57 | 32.76532 | -117.35987 | 34027 ft | 386 kts | 259° |
| 2026-05-04 03:58 | 32.75464 | -117.45427 | 34028 ft | 386 kts | 259° |
| 2026-05-04 03:58 | 32.74510 | -117.51727 | 34029 ft | 383 kts | 252° |
| 2026-05-04 03:59 | 32.72504 | -117.57513 | 34028 ft | 383 kts | 242° |
| 2026-05-04 03:59 | 32.69273 | -117.62562 | 34031 ft | 388 kts | 230° |
| 2026-05-04 04:00 | 32.64927 | -117.66489 | 34034 ft | 401 kts | 217° |
| 2026-05-04 04:00 | 32.59636 | -117.68954 | 34036 ft | 420 kts | 204° |
| 2026-05-04 04:01 | 32.56710 | -117.69518 | 34036 ft | 432 kts | 197° |
| 2026-05-04 04:01 | 32.53652 | -117.69570 | 34035 ft | 445 kts | 189° |
| 2026-05-04 04:01 | 32.47408 | -117.68958 | 34034 ft | 453 kts | 187° |
| 2026-05-04 04:02 | 32.41231 | -117.68806 | 34035 ft | 436 kts | 196° |
| 2026-05-04 04:02 | 32.35232 | -117.69547 | 34034 ft | 432 kts | 198° |
| 2026-05-04 04:03 | 32.29285 | -117.70485 | 34037 ft | 430 kts | 199° |
| 2026-05-04 04:03 | 32.23346 | -117.71451 | 34036 ft | 432 kts | 199° |
| 2026-05-04 04:04 | 32.17413 | -117.72397 | 34039 ft | 433 kts | 199° |
| 2026-05-04 04:04 | 32.11441 | -117.73331 | 34042 ft | 433 kts | 198° |
| 2026-05-04 04:05 | 32.05462 | -117.74261 | 34042 ft | 433 kts | 198° |
| 2026-05-04 04:05 | 31.99487 | -117.75190 | 34041 ft | 433 kts | 199° |
| 2026-05-04 04:06 | 31.93515 | -117.76118 | 34048 ft | 432 kts | 199° |
| 2026-05-04 04:06 | 31.87447 | -117.76648 | 34048 ft | 442 kts | 193° |
| 2026-05-04 04:07 | 31.81279 | -117.76715 | 34045 ft | 444 kts | 192° |
| 2026-05-04 04:07 | 31.75128 | -117.76694 | 34040 ft | 445 kts | 192° |
| 2026-05-04 04:08 | 31.68933 | -117.76674 | 34046 ft | 445 kts | 192° |
| 2026-05-04 04:08 | 31.62744 | -117.76666 | 34046 ft | 445 kts | 192° |
| 2026-05-04 04:09 | 31.56548 | -117.76665 | 34046 ft | 445 kts | 192° |
| 2026-05-04 04:09 | 31.50361 | -117.76667 | 34036 ft | 445 kts | 192° |
| 2026-05-04 04:10 | 31.44146 | -117.76669 | 34048 ft | 446 kts | 192° |
| 2026-05-04 04:10 | 31.37932 | -117.76669 | 34048 ft | 446 kts | 192° |
| 2026-05-04 04:11 | 31.31721 | -117.76667 | 34048 ft | 446 kts | 192° |
| 2026-05-04 04:11 | 31.25545 | -117.76668 | 34040 ft | 448 kts | 192° |
| 2026-05-04 04:12 | 31.19275 | -117.76675 | 34045 ft | 452 kts | 192° |
| 2026-05-04 04:12 | 31.12973 | -117.76673 | 34045 ft | 453 kts | 192° |
| 2026-05-04 04:13 | 31.06671 | -117.76668 | 34045 ft | 453 kts | 192° |
| 2026-05-04 04:13 | 31.00367 | -117.76667 | 34042 ft | 454 kts | 191° |
| 2026-05-04 04:14 | 30.94027 | -117.76670 | 34043 ft | 455 kts | 191° |
| 2026-05-04 04:14 | 30.87687 | -117.76670 | 34044 ft | 456 kts | 191° |
| 2026-05-04 04:15 | 30.81346 | -117.76668 | 34045 ft | 455 kts | 191° |
| 2026-05-04 04:15 | 30.75006 | -117.76667 | 34039 ft | 455 kts | 191° |
| 2026-05-04 04:16 | 30.68714 | -117.76666 | 34044 ft | 455 kts | 191° |
| 2026-05-04 04:16 | 30.62375 | -117.76666 | 34046 ft | 455 kts | 191° |
| 2026-05-04 04:17 | 30.56047 | -117.76666 | 34047 ft | 455 kts | 191° |
| 2026-05-04 04:17 | 30.49720 | -117.76667 | 34047 ft | 454 kts | 191° |
| 2026-05-04 04:18 | 30.43404 | -117.76665 | 34049 ft | 453 kts | 191° |
| 2026-05-04 04:18 | 30.37092 | -117.76666 | 34049 ft | 453 kts | 191° |
| 2026-05-04 04:19 | 30.30785 | -117.76667 | 34054 ft | 453 kts | 191° |
| 2026-05-04 04:19 | 30.24518 | -117.76667 | 34053 ft | 453 kts | 191° |
| 2026-05-04 04:20 | 30.18228 | -117.76780 | 34054 ft | 451 kts | 192° |
| 2026-05-04 04:20 | 30.11961 | -117.76995 | 34053 ft | 450 kts | 192° |
| 2026-05-04 04:21 | 30.05695 | -117.77214 | 34050 ft | 451 kts | 192° |
| 2026-05-04 04:21 | 29.99417 | -117.77419 | 34051 ft | 452 kts | 192° |
| 2026-05-04 04:22 | 29.93124 | -117.77618 | 34056 ft | 453 kts | 192° |
| 2026-05-04 04:22 | 29.86847 | -117.77944 | 34057 ft | 445 kts | 197° |
| 2026-05-04 04:23 | 29.81014 | -117.79698 | 34056 ft | 424 kts | 212° |
| 2026-05-04 04:23 | 29.76101 | -117.83179 | 34026 ft | 409 kts | 226° |
| 2026-05-04 04:24 | 29.72416 | -117.88008 | 34054 ft | 403 kts | 240° |
| 2026-05-04 04:24 | 29.70087 | -117.93842 | 34055 ft | 402 kts | 253° |
| 2026-05-04 04:25 | 29.69234 | -118.00213 | 34062 ft | 405 kts | 263° |
| 2026-05-04 04:25 | 29.68997 | -118.06704 | 34064 ft | 407 kts | 264° |
| 2026-05-04 04:26 | 29.68829 | -118.13213 | 34062 ft | 407 kts | 264° |
| 2026-05-04 04:26 | 29.68624 | -118.19712 | 34060 ft | 406 kts | 262° |
| 2026-05-04 04:27 | 29.67647 | -118.26010 | 34061 ft | 401 kts | 251° |
| 2026-05-04 04:27 | 29.65305 | -118.31806 | 34059 ft | 401 kts | 239° |
| 2026-05-04 04:28 | 29.62424 | -118.36038 | 34059 ft | 406 kts | 233° |
| 2026-05-04 04:28 | 29.58637 | -118.40905 | 34058 ft | 409 kts | 231° |
| 2026-05-04 04:29 | 29.54797 | -118.45735 | 34062 ft | 409 kts | 231° |
| 2026-05-04 04:29 | 29.51004 | -118.50542 | 34060 ft | 408 kts | 232° |
| 2026-05-04 04:30 | 29.47202 | -118.55390 | 34064 ft | 408 kts | 232° |
| 2026-05-04 04:30 | 29.43407 | -118.60235 | 34066 ft | 408 kts | 232° |
| 2026-05-04 04:31 | 29.39609 | -118.65077 | 34067 ft | 408 kts | 232° |
| 2026-05-04 04:31 | 29.35802 | -118.69924 | 34068 ft | 408 kts | 232° |
| 2026-05-04 04:32 | 29.31995 | -118.74764 | 34065 ft | 408 kts | 232° |
| 2026-05-04 04:32 | 29.28189 | -118.79596 | 34042 ft | 408 kts | 232° |
| 2026-05-04 04:33 | 29.24366 | -118.84445 | 34068 ft | 411 kts | 232° |
| 2026-05-04 04:33 | 29.20553 | -118.89276 | 34064 ft | 411 kts | 232° |
| 2026-05-04 04:34 | 29.16712 | -118.94135 | 34068 ft | 411 kts | 232° |
| 2026-05-04 04:34 | 29.12874 | -118.98984 | 34073 ft | 410 kts | 231° |
| 2026-05-04 04:35 | 29.09043 | -119.03819 | 34068 ft | 410 kts | 231° |
| 2026-05-04 04:35 | 29.05213 | -119.08646 | 34070 ft | 410 kts | 231° |
| 2026-05-04 04:36 | 29.01383 | -119.13469 | 34076 ft | 410 kts | 231° |
| 2026-05-04 04:36 | 28.97551 | -119.18289 | 34077 ft | 410 kts | 231° |
| 2026-05-04 04:37 | 28.89906 | -119.27886 | 34088 ft | 410 kts | 231° |
| 2026-05-04 04:38 | 28.86060 | -119.32706 | 34081 ft | 411 kts | 231° |
| 2026-05-04 04:38 | 28.82215 | -119.37518 | 34085 ft | 410 kts | 231° |
| 2026-05-04 04:39 | 28.78358 | -119.42340 | 34085 ft | 410 kts | 231° |
| 2026-05-04 04:39 | 28.74504 | -119.47153 | 34085 ft | 410 kts | 231° |
| 2026-05-04 04:40 | 28.70653 | -119.51955 | 34088 ft | 410 kts | 231° |
| 2026-05-04 04:40 | 28.66823 | -119.56727 | 34091 ft | 410 kts | 231° |
| 2026-05-04 04:41 | 28.62969 | -119.61523 | 34095 ft | 411 kts | 231° |
| 2026-05-04 04:41 | 28.59104 | -119.66327 | 34094 ft | 411 kts | 231° |
| 2026-05-04 04:42 | 28.55247 | -119.71115 | 34081 ft | 411 kts | 231° |
| 2026-05-04 04:42 | 28.51372 | -119.75921 | 34094 ft | 413 kts | 231° |
| 2026-05-04 04:43 | 28.47483 | -119.80738 | 34091 ft | 413 kts | 231° |
| 2026-05-04 04:43 | 28.43589 | -119.85551 | 34091 ft | 413 kts | 231° |
| 2026-05-04 04:44 | 28.39699 | -119.90357 | 34094 ft | 413 kts | 231° |
| 2026-05-04 04:44 | 28.35812 | -119.95156 | 34097 ft | 413 kts | 231° |
| 2026-05-04 04:45 | 28.31921 | -119.99953 | 34097 ft | 413 kts | 231° |
| 2026-05-04 04:47 | 28.18308 | -120.16699 | 34087 ft | 413 kts | 231° |
| 2026-05-04 04:47 | 28.14465 | -120.21563 | 34097 ft | 415 kts | 231° |
| 2026-05-04 04:48 | 28.10645 | -120.26467 | 34096 ft | 415 kts | 231° |
| 2026-05-04 04:49 | 28.01060 | -120.38715 | 34097 ft | 415 kts | 231° |
| 2026-05-04 04:49 | 27.97242 | -120.43573 | 34100 ft | 416 kts | 231° |
| 2026-05-04 04:50 | 27.93397 | -120.48459 | 34097 ft | 416 kts | 231° |
| 2026-05-04 04:50 | 27.89547 | -120.53347 | 34100 ft | 416 kts | 231° |
| 2026-05-04 04:51 | 27.85698 | -120.58228 | 34097 ft | 416 kts | 231° |
| 2026-05-04 04:51 | 27.81845 | -120.63109 | 34083 ft | 416 kts | 231° |
| 2026-05-04 04:52 | 27.77982 | -120.67998 | 34100 ft | 418 kts | 231° |
| 2026-05-04 04:52 | 27.74110 | -120.72892 | 34099 ft | 418 kts | 231° |
| 2026-05-04 04:53 | 27.70237 | -120.77781 | 34102 ft | 418 kts | 231° |
| 2026-05-04 04:53 | 27.66360 | -120.82669 | 34102 ft | 418 kts | 231° |
| 2026-05-04 04:54 | 27.62480 | -120.87556 | 34099 ft | 418 kts | 231° |
| 2026-05-04 04:54 | 27.58599 | -120.92437 | 34099 ft | 418 kts | 231° |
| 2026-05-04 04:55 | 27.54717 | -120.97316 | 34091 ft | 417 kts | 230° |
| 2026-05-04 04:55 | 27.50847 | -121.02174 | 34108 ft | 416 kts | 230° |
| 2026-05-04 04:56 | 27.46988 | -121.07011 | 34105 ft | 415 kts | 230° |
| 2026-05-04 04:56 | 27.43155 | -121.11811 | 34108 ft | 416 kts | 230° |
| 2026-05-04 04:57 | 27.39272 | -121.16670 | 34104 ft | 418 kts | 230° |
| 2026-05-04 04:57 | 27.35384 | -121.21526 | 34115 ft | 418 kts | 230° |
| 2026-05-04 04:58 | 27.31495 | -121.26380 | 34107 ft | 417 kts | 230° |
| 2026-05-04 04:58 | 27.27617 | -121.31213 | 34107 ft | 416 kts | 230° |
| 2026-05-04 04:59 | 27.23742 | -121.36038 | 34110 ft | 416 kts | 230° |
| 2026-05-04 04:59 | 27.19865 | -121.40860 | 34110 ft | 416 kts | 230° |
| 2026-05-04 05:00 | 27.15983 | -121.45683 | 34115 ft | 416 kts | 230° |
| 2026-05-04 05:01 | 27.10189 | -121.52872 | 34123 ft | 416 kts | 230° |
| 2026-05-04 05:01 | 27.06307 | -121.57682 | 34103 ft | 416 kts | 230° |
| 2026-05-04 05:02 | 27.02410 | -121.62506 | 34116 ft | 417 kts | 230° |
| 2026-05-04 05:02 | 26.98509 | -121.67329 | 34115 ft | 417 kts | 230° |
| 2026-05-04 05:03 | 26.94807 | -121.72316 | 34121 ft | 415 kts | 238° |
| 2026-05-04 05:04 | 26.88879 | -121.83417 | 34114 ft | 414 kts | 240° |
| 2026-05-04 05:04 | 26.86025 | -121.88977 | 34115 ft | 414 kts | 240° |
| 2026-05-04 05:06 | 26.74449 | -122.11274 | 34121 ft | 414 kts | 240° |
| 2026-05-04 05:07 | 26.71546 | -122.16841 | 34122 ft | 414 kts | 240° |
| 2026-05-04 05:07 | 26.68640 | -122.22406 | 34114 ft | 414 kts | 240° |
| 2026-05-04 05:09 | 26.55565 | -122.47363 | 34118 ft | 414 kts | 240° |
| 2026-05-04 05:10 | 26.52647 | -122.52914 | 34121 ft | 414 kts | 240° |
| 2026-05-04 05:10 | 26.49728 | -122.58459 | 34125 ft | 414 kts | 240° |
| 2026-05-04 05:11 | 26.46807 | -122.64002 | 34124 ft | 414 kts | 239° |
| 2026-05-04 05:11 | 26.43884 | -122.69542 | 34124 ft | 414 kts | 239° |
| 2026-05-04 05:12 | 26.40958 | -122.75078 | 34124 ft | 414 kts | 239° |
| 2026-05-04 05:12 | 26.38032 | -122.80611 | 34124 ft | 414 kts | 239° |
| 2026-05-04 05:13 | 26.35599 | -122.85204 | 34126 ft | 414 kts | 239° |
| 2026-05-04 05:13 | 26.32667 | -122.90735 | 34128 ft | 414 kts | 239° |
| 2026-05-04 05:14 | 26.29261 | -122.97153 | 34124 ft | 414 kts | 239° |
| 2026-05-04 05:14 | 26.26802 | -123.01779 | 34124 ft | 414 kts | 239° |
| 2026-05-04 05:15 | 26.23882 | -123.07264 | 34129 ft | 414 kts | 239° |
| 2026-05-04 05:15 | 26.20947 | -123.12772 | 34129 ft | 413 kts | 239° |
| 2026-05-04 05:16 | 26.18008 | -123.18284 | 34128 ft | 414 kts | 239° |
| 2026-05-04 05:16 | 26.15066 | -123.23792 | 34127 ft | 414 kts | 239° |
| 2026-05-04 05:17 | 26.12118 | -123.29304 | 34106 ft | 414 kts | 238° |
| 2026-05-04 05:17 | 26.09167 | -123.34816 | 34124 ft | 415 kts | 238° |
| 2026-05-04 05:18 | 26.06358 | -123.40387 | 34123 ft | 416 kts | 244° |
| 2026-05-04 05:18 | 26.04712 | -123.46577 | 34123 ft | 422 kts | 258° |
| 2026-05-04 05:19 | 26.04833 | -123.53177 | 34123 ft | 436 kts | 274° |
| 2026-05-04 05:19 | 26.06949 | -123.59628 | 34120 ft | 456 kts | 291° |
| 2026-05-04 05:20 | 26.08772 | -123.62567 | 34126 ft | 468 kts | 300° |
| 2026-05-04 05:20 | 26.11081 | -123.65178 | 34124 ft | 482 kts | 310° |
| 2026-05-04 05:20 | 26.16483 | -123.69744 | 34121 ft | 490 kts | 314° |
| 2026-05-04 05:21 | 26.22058 | -123.74125 | 34127 ft | 491 kts | 315° |
| 2026-05-04 05:21 | 26.27632 | -123.78523 | 34127 ft | 490 kts | 314° |
| 2026-05-04 05:22 | 26.33170 | -123.82957 | 34126 ft | 490 kts | 314° |
| 2026-05-04 05:22 | 26.38690 | -123.87409 | 34126 ft | 490 kts | 314° |
| 2026-05-04 05:23 | 26.44171 | -123.91840 | 34126 ft | 490 kts | 314° |
| 2026-05-04 05:23 | 26.49694 | -123.96308 | 34135 ft | 490 kts | 314° |
| 2026-05-04 05:24 | 26.55210 | -124.00772 | 34130 ft | 489 kts | 313° |
| 2026-05-04 05:24 | 26.60723 | -124.05241 | 34129 ft | 489 kts | 313° |
| 2026-05-04 05:25 | 26.66233 | -124.09713 | 34132 ft | 489 kts | 313° |
| 2026-05-04 05:25 | 26.71750 | -124.14195 | 34132 ft | 490 kts | 313° |
| 2026-05-04 05:26 | 26.77227 | -124.18651 | 34135 ft | 490 kts | 313° |
| 2026-05-04 05:26 | 26.82748 | -124.23148 | 34136 ft | 491 kts | 313° |
| 2026-05-04 05:28 | 27.04874 | -124.41223 | 34138 ft | 492 kts | 313° |
| 2026-05-04 05:29 | 27.10369 | -124.45726 | 34139 ft | 492 kts | 313° |
| 2026-05-04 05:29 | 27.15889 | -124.50256 | 34140 ft | 492 kts | 313° |
| 2026-05-04 05:31 | 27.38014 | -124.68468 | 34140 ft | 492 kts | 313° |
| 2026-05-04 05:32 | 27.43538 | -124.73029 | 34141 ft | 492 kts | 312° |
| 2026-05-04 05:33 | 27.51834 | -124.79892 | 34148 ft | 494 kts | 312° |
| 2026-05-04 05:33 | 27.57381 | -124.84489 | 34139 ft | 495 kts | 312° |
| 2026-05-04 05:34 | 27.62934 | -124.89093 | 34145 ft | 495 kts | 312° |
| 2026-05-04 05:34 | 27.68480 | -124.93698 | 34173 ft | 495 kts | 312° |
| 2026-05-04 05:35 | 27.74033 | -124.98317 | 34140 ft | 497 kts | 311° |
| 2026-05-04 05:35 | 27.79613 | -125.02964 | 34136 ft | 498 kts | 311° |
| 2026-05-04 05:36 | 27.85148 | -125.07578 | 34141 ft | 498 kts | 311° |
| 2026-05-04 05:36 | 27.90706 | -125.12262 | 34146 ft | 492 kts | 308° |
| 2026-05-04 05:36 | 27.93160 | -125.14869 | 34140 ft | 477 kts | 300° |
| 2026-05-04 05:37 | 27.95170 | -125.17776 | 34141 ft | 461 kts | 291° |
| 2026-05-04 05:37 | 27.96675 | -125.20901 | 34142 ft | 446 kts | 282° |
| 2026-05-04 05:37 | 27.97669 | -125.24159 | 34141 ft | 432 kts | 274° |
| 2026-05-04 05:38 | 27.98181 | -125.30749 | 34139 ft | 413 kts | 258° |
| 2026-05-04 05:38 | 27.97756 | -125.33933 | 34142 ft | 406 kts | 251° |
| 2026-05-04 05:38 | 27.95706 | -125.39790 | 34141 ft | 398 kts | 237° |
| 2026-05-04 05:39 | 27.90135 | -125.46596 | 34141 ft | 399 kts | 217° |
| 2026-05-04 05:40 | 27.82308 | -125.50105 | 34141 ft | 417 kts | 196° |
| 2026-05-04 05:40 | 27.76395 | -125.50060 | 34112 ft | 438 kts | 180° |
| 2026-05-04 05:41 | 27.73400 | -125.49203 | 34136 ft | 452 kts | 171° |
| 2026-05-04 05:41 | 27.70478 | -125.47748 | 34141 ft | 467 kts | 162° |
| 2026-05-04 05:41 | 27.67728 | -125.45674 | 34140 ft | 485 kts | 152° |
| 2026-05-04 05:41 | 27.65261 | -125.42978 | 34139 ft | 503 kts | 142° |
| 2026-05-04 05:42 | 27.63209 | -125.39696 | 34138 ft | 523 kts | 130° |
| 2026-05-04 05:42 | 27.61565 | -125.35986 | 34139 ft | 532 kts | 125° |
| 2026-05-04 05:42 | 27.58609 | -125.28280 | 34140 ft | 537 kts | 123° |
| 2026-05-04 05:43 | 27.55756 | -125.20565 | 34143 ft | 535 kts | 123° |
| 2026-05-04 05:45 | 27.43899 | -124.89816 | 34123 ft | 536 kts | 123° |
| 2026-05-04 05:47 | 27.51140 | -124.58022 | 34144 ft | 589 kts | 29° |
| 2026-05-04 05:47 | 27.58269 | -124.53689 | 34150 ft | 585 kts | 20° |
| 2026-05-04 05:48 | 27.65707 | -124.49937 | 34138 ft | 586 kts | 18° |
| 2026-05-04 05:48 | 27.73139 | -124.46138 | 34142 ft | 587 kts | 19° |
| 2026-05-04 05:49 | 27.80517 | -124.42204 | 34137 ft | 586 kts | 20° |
| 2026-05-04 05:49 | 27.87870 | -124.38213 | 34137 ft | 587 kts | 20° |
| 2026-05-04 05:51 | 28.17401 | -124.22134 | 34138 ft | 591 kts | 20° |
| 2026-05-04 05:52 | 28.24816 | -124.18085 | 34134 ft | 592 kts | 20° |
| 2026-05-04 05:52 | 28.32233 | -124.14029 | 34135 ft | 591 kts | 20° |
| 2026-05-04 05:54 | 28.61909 | -123.97745 | 34127 ft | 595 kts | 20° |
| 2026-05-04 05:55 | 28.69361 | -123.93636 | 34126 ft | 594 kts | 20° |
| 2026-05-04 05:55 | 28.76838 | -123.89507 | 34125 ft | 592 kts | 20° |
| 2026-05-04 05:56 | 28.84247 | -123.85412 | 34127 ft | 592 kts | 20° |
| 2026-05-04 05:56 | 28.91615 | -123.81335 | 34127 ft | 592 kts | 20° |
| 2026-05-04 05:57 | 28.99033 | -123.77222 | 34151 ft | 592 kts | 20° |
| 2026-05-04 05:57 | 29.06455 | -123.73101 | 34127 ft | 595 kts | 20° |
| 2026-05-04 05:58 | 29.13571 | -123.68150 | 34122 ft | 606 kts | 38° |
| 2026-05-04 05:58 | 29.16522 | -123.64701 | 34124 ft | 608 kts | 50° |
| 2026-05-04 05:58 | 29.19060 | -123.60839 | 34124 ft | 607 kts | 57° |
| 2026-05-04 05:59 | 29.23354 | -123.52595 | 34124 ft | 606 kts | 63° |
| 2026-05-04 05:59 | 29.27360 | -123.44094 | 34121 ft | 607 kts | 63° |
| 2026-05-04 06:00 | 29.31443 | -123.35637 | 34121 ft | 607 kts | 62° |
| 2026-05-04 06:00 | 29.35624 | -123.27226 | 34121 ft | 607 kts | 62° |
| 2026-05-04 06:01 | 29.39121 | -123.20251 | 34117 ft | 607 kts | 62° |
| 2026-05-04 06:03 | 29.55915 | -122.86555 | 34117 ft | 608 kts | 61° |
| 2026-05-04 06:05 | 29.75045 | -122.48864 | 34114 ft | 606 kts | 60° |
| 2026-05-04 06:06 | 29.79276 | -122.40463 | 34112 ft | 606 kts | 60° |
| 2026-05-04 06:06 | 29.83500 | -122.32060 | 34111 ft | 606 kts | 60° |
| 2026-05-04 06:07 | 29.87712 | -122.23661 | 34114 ft | 604 kts | 60° |